createdAt,value
2022-11-16T00:00:06.592Z,967.72
2022-11-16T00:01:03.402Z,967.77
2022-11-16T00:02:03.450Z,967.63
2022-11-16T00:03:03.368Z,967.57
2022-11-16T00:04:03.513Z,967.55
2022-11-16T00:05:03.515Z,967.66
2022-11-16T00:06:03.545Z,967.72
2022-11-16T00:07:03.732Z,967.63
2022-11-16T00:08:03.637Z,967.57
2022-11-16T00:09:03.800Z,967.57
2022-11-16T00:10:03.861Z,967.60
2022-11-16T00:11:02.962Z,967.49
2022-11-16T00:12:03.027Z,967.58
2022-11-16T00:13:02.982Z,967.40
2022-11-16T00:14:03.018Z,967.27
2022-11-16T00:15:03.143Z,967.36
2022-11-16T00:16:03.270Z,967.35
2022-11-16T00:17:03.242Z,967.30
2022-11-16T00:18:03.210Z,967.30
2022-11-16T00:19:03.280Z,967.30
2022-11-16T00:20:03.346Z,967.13
2022-11-16T00:21:03.545Z,967.30
2022-11-16T00:22:03.555Z,967.35
2022-11-16T00:23:03.514Z,967.16
2022-11-16T00:24:03.564Z,967.18
2022-11-16T00:25:03.573Z,967.30
2022-11-16T00:26:03.470Z,967.10
2022-11-16T00:27:03.622Z,967.24
2022-11-16T00:28:03.645Z,967.22
2022-11-16T00:29:03.577Z,967.19
2022-11-16T00:30:03.677Z,967.10
2022-11-16T00:31:03.709Z,967.10
2022-11-16T00:32:03.946Z,967.02
2022-11-16T00:33:03.863Z,967.13
2022-11-16T00:34:03.777Z,967.05
2022-11-16T00:35:03.880Z,967.19
2022-11-16T00:38:03.614Z,967.11
2022-11-16T00:39:03.790Z,967.16
2022-11-16T00:40:03.861Z,967.02
2022-11-16T00:41:02.986Z,967.05
2022-11-16T00:42:03.088Z,966.97
2022-11-16T00:43:03.059Z,967.16
2022-11-16T00:44:03.143Z,966.89
2022-11-16T00:45:03.104Z,967.05
2022-11-16T00:46:03.177Z,966.86
2022-11-16T00:47:03.247Z,967.00
2022-11-16T00:48:03.352Z,966.86
2022-11-16T00:49:03.388Z,966.91
2022-11-16T00:50:03.261Z,966.83
2022-11-16T00:51:03.286Z,966.80
2022-11-16T00:52:03.330Z,966.91
2022-11-16T00:53:03.476Z,966.83
2022-11-16T00:54:03.423Z,966.83
2022-11-16T00:55:03.463Z,966.66
2022-11-16T00:56:03.588Z,966.71
2022-11-16T00:57:04.127Z,966.66
2022-11-16T00:58:03.187Z,966.63
2022-11-16T00:59:02.957Z,966.68
2022-11-16T01:00:02.989Z,966.80
2022-11-16T01:01:03.321Z,966.68
2022-11-16T01:02:03.170Z,966.80
2022-11-16T01:03:03.298Z,966.74
2022-11-16T01:04:03.382Z,966.80
2022-11-16T01:05:03.308Z,966.83
2022-11-16T01:06:03.394Z,966.71
2022-11-16T01:07:03.555Z,966.83
2022-11-16T01:08:03.414Z,966.83
2022-11-16T01:09:03.610Z,966.72
2022-11-16T01:10:03.691Z,966.89
2022-11-16T01:11:02.904Z,966.75
2022-11-16T01:12:03.536Z,966.75
2022-11-16T01:13:04.030Z,966.89
2022-11-16T01:14:03.893Z,966.86
2022-11-16T01:15:08.087Z,966.86
2022-11-16T01:16:03.674Z,966.72
2022-11-16T01:17:03.647Z,966.89
2022-11-16T01:18:09.138Z,966.89
2022-11-16T01:19:03.444Z,966.86
2022-11-16T01:20:03.370Z,966.78
2022-11-16T01:21:04.142Z,966.89
2022-11-16T01:22:04.219Z,966.81
2022-11-16T01:23:08.140Z,966.95
2022-11-16T01:24:03.921Z,966.84
2022-11-16T01:25:04.048Z,966.84
2022-11-16T01:26:04.505Z,966.90
2022-11-16T01:28:03.233Z,966.95
2022-11-16T01:30:08.941Z,967.14
2022-11-16T01:31:03.372Z,966.81
2022-11-16T01:32:03.152Z,966.96
2022-11-16T01:34:08.472Z,966.84
2022-11-16T01:35:03.625Z,966.87
2022-11-16T01:36:03.708Z,966.79
2022-11-16T01:37:03.938Z,966.73
2022-11-16T01:38:03.261Z,966.90
2022-11-16T01:39:04.237Z,966.76
2022-11-16T01:40:03.794Z,966.93
2022-11-16T01:41:04.404Z,966.68
2022-11-16T01:42:03.101Z,966.85
2022-11-16T01:43:03.510Z,966.90
2022-11-16T01:44:14.508Z,966.90
2022-11-16T01:45:03.187Z,966.88
2022-11-16T01:46:03.520Z,966.85
2022-11-16T01:47:03.725Z,966.94
2022-11-16T01:48:08.560Z,966.85
2022-11-16T01:49:03.347Z,966.79
2022-11-16T01:50:04.314Z,966.74
2022-11-16T01:51:09.455Z,966.74
2022-11-16T01:52:04.340Z,966.77
2022-11-16T01:53:03.513Z,966.68
2022-11-16T01:54:03.778Z,966.88
2022-11-16T01:55:04.280Z,966.71
2022-11-16T01:56:03.548Z,966.83
2022-11-16T01:57:04.020Z,966.60
2022-11-16T01:58:08.351Z,966.74
2022-11-16T01:59:03.549Z,966.72
2022-11-16T02:00:04.218Z,966.69
2022-11-16T02:01:04.469Z,966.55
2022-11-16T02:02:08.103Z,966.66
2022-11-16T02:03:03.398Z,966.55
2022-11-16T02:04:03.613Z,966.50
2022-11-16T02:05:03.976Z,966.61
2022-11-16T02:06:03.044Z,966.44
2022-11-16T02:07:08.358Z,966.38
2022-11-16T02:08:03.631Z,966.44
2022-11-16T02:09:03.787Z,966.36
2022-11-16T02:10:03.702Z,966.33
2022-11-16T02:11:03.786Z,966.47
2022-11-16T02:12:03.738Z,966.31
2022-11-16T02:13:03.880Z,966.34
2022-11-16T02:14:03.771Z,966.34
2022-11-16T02:15:03.855Z,966.42
2022-11-16T02:16:03.819Z,966.42
2022-11-16T02:17:02.976Z,966.45
2022-11-16T02:18:03.295Z,966.54
2022-11-16T02:19:03.333Z,966.31
2022-11-16T02:20:03.339Z,966.28
2022-11-16T02:21:03.374Z,966.31
2022-11-16T02:22:03.477Z,966.34
2022-11-16T02:23:03.439Z,966.17
2022-11-16T02:24:03.363Z,966.31
2022-11-16T02:25:03.485Z,966.31
2022-11-16T02:26:03.598Z,966.29
2022-11-16T02:27:03.690Z,966.23
2022-11-16T02:28:03.713Z,966.29
2022-11-16T02:29:03.759Z,966.20
2022-11-16T02:30:03.816Z,966.15
2022-11-16T02:31:03.744Z,966.35
2022-11-16T02:32:03.772Z,966.15
2022-11-16T02:33:03.825Z,966.15
2022-11-16T02:34:03.898Z,966.29
2022-11-16T02:35:02.998Z,966.38
2022-11-16T02:36:03.042Z,966.21
2022-11-16T02:37:03.107Z,966.24
2022-11-16T02:38:03.170Z,966.38
2022-11-16T02:39:03.275Z,966.24
2022-11-16T02:40:03.341Z,966.27
2022-11-16T02:41:03.511Z,966.16
2022-11-16T02:42:03.403Z,966.16
2022-11-16T02:43:03.497Z,966.21
2022-11-16T02:44:03.563Z,966.16
2022-11-16T02:45:03.519Z,966.16
2022-11-16T02:46:03.520Z,966.07
2022-11-16T02:47:03.594Z,966.16
2022-11-16T02:48:03.849Z,966.10
2022-11-16T02:49:03.850Z,966.10
2022-11-16T02:50:03.851Z,965.99
2022-11-16T02:51:02.988Z,966.10
2022-11-16T02:52:03.019Z,966.10
2022-11-16T02:53:03.110Z,965.96
2022-11-16T02:54:03.161Z,965.99
2022-11-16T02:55:03.032Z,965.99
2022-11-16T02:56:03.190Z,966.02
2022-11-16T02:57:03.165Z,965.99
2022-11-16T02:58:03.302Z,966.16
2022-11-16T02:59:03.428Z,965.91
2022-11-16T03:00:03.570Z,966.13
2022-11-16T03:01:03.845Z,966.13
2022-11-16T03:02:03.620Z,966.11
2022-11-16T03:03:03.722Z,965.99
2022-11-16T03:04:03.862Z,965.97
2022-11-16T03:05:02.972Z,965.97
2022-11-16T03:06:02.952Z,965.99
2022-11-16T03:07:03.056Z,966.08
2022-11-16T03:08:03.068Z,965.94
2022-11-16T03:09:03.308Z,966.02
2022-11-16T03:10:03.234Z,966.05
2022-11-16T03:11:03.186Z,965.99
2022-11-16T03:12:03.305Z,965.99
2022-11-16T03:13:03.354Z,965.91
2022-11-16T03:14:03.289Z,965.88
2022-11-16T03:15:03.445Z,965.97
2022-11-16T03:16:03.528Z,966.14
2022-11-16T03:17:03.603Z,966.08
2022-11-16T03:18:03.727Z,966.11
2022-11-16T03:19:03.803Z,966.05
2022-11-16T03:21:03.178Z,966.05
2022-11-16T03:22:03.309Z,966.25
2022-11-16T03:23:03.401Z,966.19
2022-11-16T03:24:03.470Z,966.14
2022-11-16T03:25:03.423Z,965.94
2022-11-16T03:26:03.517Z,966.11
2022-11-16T03:27:03.489Z,966.08
2022-11-16T03:28:03.463Z,966.13
2022-11-16T03:29:03.525Z,965.97
2022-11-16T03:30:03.684Z,966.02
2022-11-16T03:31:03.669Z,966.05
2022-11-16T03:32:03.648Z,965.97
2022-11-16T03:33:03.654Z,966.25
2022-11-16T03:34:03.790Z,966.13
2022-11-16T03:35:03.873Z,965.99
2022-11-16T03:36:03.790Z,965.97
2022-11-16T03:37:03.929Z,966.05
2022-11-16T03:38:03.013Z,966.11
2022-11-16T03:39:02.958Z,966.19
2022-11-16T03:40:03.005Z,966.19
2022-11-16T03:41:02.956Z,966.16
2022-11-16T03:42:02.987Z,966.08
2022-11-16T03:43:02.908Z,966.14
2022-11-16T03:44:03.034Z,966.28
2022-11-16T03:45:03.409Z,966.14
2022-11-16T03:46:03.400Z,966.11
2022-11-16T03:47:03.541Z,966.17
2022-11-16T03:48:03.421Z,966.03
2022-11-16T03:49:03.472Z,966.08
2022-11-16T03:50:03.871Z,966.05
2022-11-16T03:51:03.776Z,966.08
2022-11-16T03:52:03.806Z,966.20
2022-11-16T03:53:03.804Z,966.20
2022-11-16T03:54:03.844Z,966.11
2022-11-16T03:55:03.822Z,966.11
2022-11-16T03:56:03.803Z,966.17
2022-11-16T03:57:03.732Z,966.11
2022-11-16T03:58:03.697Z,966.17
2022-11-16T03:59:03.825Z,966.08
2022-11-16T04:00:03.841Z,966.28
2022-11-16T04:01:03.667Z,966.20
2022-11-16T04:02:03.265Z,966.25
2022-11-16T04:03:03.300Z,966.25
2022-11-16T04:04:03.350Z,966.17
2022-11-16T04:05:03.312Z,966.09
2022-11-16T04:06:03.393Z,966.26
2022-11-16T04:07:03.913Z,966.06
2022-11-16T04:08:03.780Z,966.11
2022-11-16T04:09:03.795Z,965.89
2022-11-16T04:10:03.953Z,966.14
2022-11-16T04:11:02.879Z,966.00
2022-11-16T04:12:03.016Z,966.12
2022-11-16T04:13:03.118Z,966.15
2022-11-16T04:14:09.316Z,966.12
2022-11-16T04:15:03.758Z,966.06
2022-11-16T04:16:03.777Z,966.09
2022-11-16T04:17:03.836Z,966.17
2022-11-16T04:18:02.954Z,966.12
2022-11-16T04:19:03.043Z,966.17
2022-11-16T04:20:03.023Z,966.20
2022-11-16T04:21:02.978Z,965.98
2022-11-16T04:22:02.993Z,966.17
2022-11-16T04:23:03.489Z,966.26
2022-11-16T04:24:03.570Z,966.32
2022-11-16T04:25:03.595Z,966.20
2022-11-16T04:26:03.605Z,966.26
2022-11-16T04:27:03.753Z,966.17
2022-11-16T04:28:03.745Z,966.32
2022-11-16T04:29:03.702Z,966.23
2022-11-16T04:30:03.700Z,966.26
2022-11-16T04:31:03.759Z,966.32
2022-11-16T04:32:03.868Z,966.20
2022-11-16T04:33:03.516Z,966.09
2022-11-16T04:34:03.761Z,966.20
2022-11-16T04:35:03.522Z,966.20
2022-11-16T04:36:03.632Z,966.26
2022-11-16T04:37:03.666Z,966.15
2022-11-16T04:38:03.560Z,966.12
2022-11-16T04:39:03.646Z,966.09
2022-11-16T04:40:03.712Z,966.12
2022-11-16T04:41:03.832Z,966.15
2022-11-16T04:42:03.782Z,966.09
2022-11-16T04:43:03.918Z,966.21
2022-11-16T04:44:03.836Z,966.07
2022-11-16T04:45:03.885Z,966.07
2022-11-16T04:46:03.781Z,966.29
2022-11-16T04:47:03.820Z,966.15
2022-11-16T04:48:03.889Z,966.27
2022-11-16T04:49:02.903Z,966.15
2022-11-16T04:50:03.917Z,966.13
2022-11-16T04:51:03.902Z,966.18
2022-11-16T04:52:03.928Z,966.10
2022-11-16T04:53:02.976Z,966.24
2022-11-16T04:54:02.942Z,966.07
2022-11-16T04:55:03.239Z,966.01
2022-11-16T04:56:03.255Z,966.12
2022-11-16T04:57:03.182Z,966.12
2022-11-16T04:58:03.161Z,966.07
2022-11-16T04:59:03.297Z,966.21
2022-11-16T05:00:03.307Z,966.09
2022-11-16T05:01:03.402Z,966.15
2022-11-16T05:02:03.522Z,966.06
2022-11-16T05:03:03.612Z,966.01
2022-11-16T05:04:03.652Z,966.12
2022-11-16T05:05:03.696Z,966.01
2022-11-16T05:06:03.659Z,966.03
2022-11-16T05:07:03.821Z,965.98
2022-11-16T05:08:03.644Z,965.95
2022-11-16T05:09:03.711Z,965.95
2022-11-16T05:10:03.713Z,966.03
2022-11-16T05:11:03.796Z,965.95
2022-11-16T05:12:03.869Z,966.06
2022-11-16T05:13:03.913Z,966.09
2022-11-16T05:14:03.885Z,966.06
2022-11-16T05:15:03.862Z,966.04
2022-11-16T05:16:03.045Z,965.95
2022-11-16T05:17:03.108Z,965.98
2022-11-16T05:18:03.158Z,966.12
2022-11-16T05:19:03.138Z,965.92
2022-11-16T05:20:03.310Z,965.98
2022-11-16T05:21:03.283Z,966.07
2022-11-16T05:22:03.708Z,966.04
2022-11-16T05:23:03.073Z,966.01
2022-11-16T05:24:03.018Z,966.01
2022-11-16T05:25:03.470Z,965.98
2022-11-16T05:26:03.335Z,966.07
2022-11-16T05:27:03.219Z,966.18
2022-11-16T05:28:03.326Z,966.07
2022-11-16T05:29:03.461Z,966.10
2022-11-16T05:30:03.452Z,966.04
2022-11-16T05:31:03.460Z,966.15
2022-11-16T05:32:03.474Z,966.10
2022-11-16T05:33:03.597Z,966.10
2022-11-16T05:34:03.545Z,966.07
2022-11-16T05:35:03.485Z,966.07
2022-11-16T05:36:03.579Z,966.12
2022-11-16T05:37:03.728Z,966.12
2022-11-16T05:38:03.691Z,966.18
2022-11-16T05:39:02.916Z,966.07
2022-11-16T05:40:03.061Z,966.07
2022-11-16T05:41:03.026Z,966.04
2022-11-16T05:42:03.630Z,966.18
2022-11-16T05:43:03.489Z,966.02
2022-11-16T05:44:03.746Z,966.10
2022-11-16T05:45:03.716Z,965.96
2022-11-16T05:46:03.796Z,966.11
2022-11-16T05:47:03.745Z,966.11
2022-11-16T05:48:03.830Z,966.11
2022-11-16T05:49:03.918Z,966.00
2022-11-16T05:50:02.952Z,966.14
2022-11-16T05:51:02.977Z,966.06
2022-11-16T05:52:03.028Z,966.14
2022-11-16T05:53:03.118Z,966.17
2022-11-16T05:54:03.066Z,966.00
2022-11-16T05:55:03.032Z,966.09
2022-11-16T05:56:03.238Z,966.03
2022-11-16T05:57:03.204Z,966.12
2022-11-16T05:58:03.200Z,966.01
2022-11-16T05:59:03.258Z,966.09
2022-11-16T06:00:03.301Z,966.06
2022-11-16T06:01:03.262Z,966.03
2022-11-16T06:02:03.432Z,966.09
2022-11-16T06:03:03.552Z,966.01
2022-11-16T06:04:03.370Z,966.15
2022-11-16T06:05:03.467Z,966.18
2022-11-16T06:06:03.462Z,966.12
2022-11-16T06:07:03.667Z,966.23
2022-11-16T06:08:03.465Z,966.12
2022-11-16T06:09:03.467Z,966.03
2022-11-16T06:10:03.455Z,966.09
2022-11-16T06:11:03.555Z,966.18
2022-11-16T06:12:03.868Z,966.17
2022-11-16T06:13:03.766Z,966.23
2022-11-16T06:14:03.729Z,966.03
2022-11-16T06:15:03.810Z,966.06
2022-11-16T06:16:03.683Z,966.06
2022-11-16T06:17:03.785Z,966.09
2022-11-16T06:18:03.961Z,966.00
2022-11-16T06:19:02.925Z,966.09
2022-11-16T06:20:02.961Z,966.09
2022-11-16T06:21:03.899Z,966.06
2022-11-16T06:22:03.866Z,966.00
2022-11-16T06:23:03.888Z,966.06
2022-11-16T06:24:03.843Z,965.98
2022-11-16T06:25:02.972Z,966.01
2022-11-16T06:26:03.016Z,965.86
2022-11-16T06:27:03.047Z,966.12
2022-11-16T06:28:08.426Z,966.12
2022-11-16T06:29:03.115Z,966.09
2022-11-16T06:30:03.170Z,965.98
2022-11-16T06:31:03.328Z,966.09
2022-11-16T06:32:03.249Z,966.01
2022-11-16T06:33:03.358Z,966.06
2022-11-16T06:34:03.207Z,966.03
2022-11-16T06:35:03.328Z,966.06
2022-11-16T06:36:03.304Z,965.95
2022-11-16T06:37:03.664Z,966.18
2022-11-16T06:38:03.604Z,966.09
2022-11-16T06:39:03.540Z,966.06
2022-11-16T06:40:03.754Z,965.98
2022-11-16T06:41:03.734Z,965.95
2022-11-16T06:42:03.758Z,966.04
2022-11-16T06:43:02.956Z,965.95
2022-11-16T06:44:03.009Z,966.01
2022-11-16T06:45:02.970Z,966.01
2022-11-16T06:46:03.025Z,965.95
2022-11-16T06:47:03.098Z,965.98
2022-11-16T06:48:03.904Z,965.92
2022-11-16T06:49:03.913Z,965.95
2022-11-16T06:50:03.068Z,965.98
2022-11-16T06:51:03.131Z,965.98
2022-11-16T06:52:03.127Z,966.07
2022-11-16T06:53:03.059Z,966.15
2022-11-16T06:54:03.099Z,966.07
2022-11-16T06:55:03.124Z,965.95
2022-11-16T06:56:03.141Z,965.90
2022-11-16T06:57:03.212Z,965.90
2022-11-16T06:58:03.222Z,965.76
2022-11-16T06:59:03.195Z,965.90
2022-11-16T07:00:03.451Z,965.79
2022-11-16T07:01:03.374Z,965.93
2022-11-16T07:02:03.663Z,965.90
2022-11-16T07:03:03.572Z,965.98
2022-11-16T07:04:03.707Z,965.93
2022-11-16T07:05:04.446Z,965.95
2022-11-16T07:06:03.773Z,965.98
2022-11-16T07:07:03.912Z,965.90
2022-11-16T07:08:03.719Z,965.87
2022-11-16T07:09:03.759Z,965.95
2022-11-16T07:10:03.877Z,965.76
2022-11-16T07:11:04.776Z,965.84
2022-11-16T07:12:03.082Z,965.84
2022-11-16T07:13:03.117Z,965.99
2022-11-16T07:14:03.161Z,965.79
2022-11-16T07:15:03.019Z,965.90
2022-11-16T07:16:03.144Z,965.76
2022-11-16T07:17:09.875Z,965.67
2022-11-16T07:18:03.114Z,965.90
2022-11-16T07:19:03.223Z,965.73
2022-11-16T07:20:03.257Z,965.90
2022-11-16T07:21:03.258Z,965.76
2022-11-16T07:22:03.187Z,965.73
2022-11-16T07:23:03.269Z,965.84
2022-11-16T07:24:03.088Z,965.70
2022-11-16T07:25:03.178Z,965.79
2022-11-16T07:26:03.375Z,965.95
2022-11-16T07:27:03.372Z,965.84
2022-11-16T07:28:03.459Z,965.90
2022-11-16T07:29:03.518Z,965.79
2022-11-16T07:30:03.545Z,965.73
2022-11-16T07:31:03.561Z,965.76
2022-11-16T07:32:03.734Z,965.90
2022-11-16T07:33:03.739Z,965.84
2022-11-16T07:34:03.742Z,965.90
2022-11-16T07:35:03.777Z,965.81
2022-11-16T07:36:03.826Z,965.87
2022-11-16T07:37:03.930Z,965.92
2022-11-16T07:38:03.959Z,965.70
2022-11-16T07:39:02.987Z,965.72
2022-11-16T07:40:03.150Z,965.67
2022-11-16T07:41:03.241Z,965.64
2022-11-16T07:42:03.194Z,965.72
2022-11-16T07:43:03.292Z,965.67
2022-11-16T07:44:03.438Z,965.60
2022-11-16T07:45:03.407Z,965.54
2022-11-16T07:46:46.325Z,965.45
2022-11-16T07:47:03.843Z,965.51
2022-11-16T07:48:02.955Z,965.57
2022-11-16T07:49:11.248Z,965.49
2022-11-16T07:50:03.432Z,965.73
2022-11-16T07:51:03.479Z,965.49
2022-11-16T07:52:03.504Z,965.65
2022-11-16T07:53:03.453Z,965.57
2022-11-16T07:54:03.529Z,965.49
2022-11-16T07:55:03.717Z,965.52
2022-11-16T07:56:03.646Z,965.62
2022-11-16T07:57:03.816Z,965.49
2022-11-16T07:58:03.754Z,965.52
2022-11-16T07:59:03.853Z,965.58
2022-11-16T08:00:03.806Z,965.63
2022-11-16T08:01:03.869Z,965.69
2022-11-16T08:02:04.148Z,965.63
2022-11-16T08:03:02.965Z,965.61
2022-11-16T08:04:03.113Z,965.53
2022-11-16T08:05:03.136Z,965.48
2022-11-16T08:06:03.237Z,965.48
2022-11-16T08:07:03.526Z,965.48
2022-11-16T08:08:03.993Z,965.42
2022-11-16T08:09:03.604Z,965.37
2022-11-16T08:10:03.683Z,965.37
2022-11-16T08:11:03.648Z,965.32
2022-11-16T08:12:03.781Z,965.20
2022-11-16T08:13:03.066Z,965.18
2022-11-16T08:14:03.157Z,965.09
2022-11-16T08:15:03.265Z,965.12
2022-11-16T08:16:03.236Z,965.06
2022-11-16T08:17:03.601Z,965.18
2022-11-16T08:18:03.505Z,965.12
2022-11-16T08:19:03.711Z,965.24
2022-11-16T08:20:03.030Z,965.13
2022-11-16T08:21:03.556Z,965.18
2022-11-16T08:22:03.797Z,965.30
2022-11-16T08:23:03.936Z,965.24
2022-11-16T08:24:03.837Z,965.19
2022-11-16T08:25:04.054Z,965.30
2022-11-16T08:26:02.961Z,965.27
2022-11-16T08:27:03.359Z,965.30
2022-11-16T08:28:03.727Z,965.44
2022-11-16T08:29:04.040Z,965.30
2022-11-16T08:30:03.415Z,965.44
2022-11-16T08:31:03.256Z,965.50
2022-11-16T08:32:03.202Z,965.33
2022-11-16T08:33:03.275Z,965.38
2022-11-16T08:34:03.369Z,965.27
2022-11-16T08:35:03.473Z,965.47
2022-11-16T08:36:03.594Z,965.47
2022-11-16T08:37:03.526Z,965.53
2022-11-16T08:38:03.539Z,965.50
2022-11-16T08:39:03.557Z,965.60
2022-11-16T08:40:03.569Z,965.69
2022-11-16T08:41:03.650Z,965.91
2022-11-16T08:42:03.663Z,965.69
2022-11-16T08:43:03.051Z,965.69
2022-11-16T08:44:03.257Z,965.63
2022-11-16T08:45:03.177Z,965.63
2022-11-16T08:46:03.219Z,965.58
2022-11-16T08:47:03.189Z,965.69
2022-11-16T08:48:04.586Z,965.71
2022-11-16T08:49:03.276Z,965.68
2022-11-16T08:50:03.351Z,965.58
2022-11-16T08:51:18.772Z,965.74
2022-11-16T08:52:03.630Z,965.74
2022-11-16T08:53:03.616Z,965.80
2022-11-16T08:54:03.638Z,965.77
2022-11-16T08:55:03.722Z,965.85
2022-11-16T08:56:03.749Z,965.66
2022-11-16T08:57:03.914Z,965.63
2022-11-16T08:58:03.903Z,965.74
2022-11-16T08:59:03.055Z,965.80
2022-11-16T09:00:03.025Z,965.82
2022-11-16T09:01:03.244Z,965.74
2022-11-16T09:02:03.465Z,965.79
2022-11-16T09:03:03.765Z,965.91
2022-11-16T09:04:03.117Z,965.82
2022-11-16T09:05:03.222Z,965.74
2022-11-16T09:06:03.678Z,965.68
2022-11-16T09:07:03.889Z,965.68
2022-11-16T09:08:03.551Z,965.68
2022-11-16T09:09:03.558Z,965.55
2022-11-16T09:10:03.858Z,965.57
2022-11-16T09:11:03.943Z,965.71
2022-11-16T09:12:03.096Z,965.62
2022-11-16T09:13:04.208Z,965.60
2022-11-16T09:14:03.896Z,965.82
2022-11-16T09:15:03.100Z,965.71
2022-11-16T09:16:03.079Z,965.62
2022-11-16T09:17:03.229Z,965.79
2022-11-16T09:18:03.519Z,965.57
2022-11-16T09:19:03.534Z,965.62
2022-11-16T09:20:03.573Z,965.71
2022-11-16T09:21:03.790Z,965.55
2022-11-16T09:22:03.747Z,965.65
2022-11-16T09:23:03.844Z,965.62
2022-11-16T09:24:04.120Z,965.65
2022-11-16T09:25:03.863Z,965.70
2022-11-16T09:26:03.945Z,965.57
2022-11-16T09:27:03.009Z,965.70
2022-11-16T09:28:03.058Z,965.62
2022-11-16T09:29:03.039Z,965.60
2022-11-16T09:30:03.896Z,965.60
2022-11-16T09:31:03.216Z,965.73
2022-11-16T09:32:03.189Z,965.65
2022-11-16T09:33:03.890Z,965.49
2022-11-16T09:34:03.271Z,965.57
2022-11-16T09:35:03.417Z,965.57
2022-11-16T09:36:03.541Z,965.67
2022-11-16T09:37:03.702Z,965.57
2022-11-16T09:38:03.734Z,965.61
2022-11-16T09:39:31.572Z,965.54
2022-11-16T09:40:03.997Z,965.64
2022-11-16T09:41:03.799Z,965.67
2022-11-16T09:42:03.200Z,965.57
2022-11-16T09:43:03.116Z,965.67
2022-11-16T09:44:03.593Z,965.56
2022-11-16T09:45:03.672Z,965.51
2022-11-16T09:46:03.145Z,965.51
2022-11-16T09:47:03.029Z,965.59
2022-11-16T09:48:03.242Z,965.59
2022-11-16T09:49:03.382Z,965.53
2022-11-16T09:50:04.349Z,965.56
2022-11-16T09:51:03.248Z,965.66
2022-11-16T09:52:03.401Z,965.50
2022-11-16T09:53:03.495Z,965.53
2022-11-16T09:54:03.834Z,965.41
2022-11-16T09:55:03.904Z,965.58
2022-11-16T09:56:03.186Z,965.55
2022-11-16T09:57:12.352Z,965.60
2022-11-16T09:58:03.619Z,965.60
2022-11-16T09:59:03.949Z,965.65
2022-11-16T10:00:03.225Z,965.55
2022-11-16T10:01:03.773Z,965.49
2022-11-16T10:02:03.879Z,965.55
2022-11-16T10:03:03.897Z,965.49
2022-11-16T10:04:02.944Z,965.52
2022-11-16T10:05:03.260Z,965.41
2022-11-16T10:06:03.621Z,965.43
2022-11-16T10:07:03.793Z,965.55
2022-11-16T10:08:03.907Z,965.49
2022-11-16T10:09:02.957Z,965.37
2022-11-16T10:10:02.957Z,965.29
2022-11-16T10:11:02.889Z,965.51
2022-11-16T10:12:03.173Z,965.37
2022-11-16T10:13:03.352Z,965.28
2022-11-16T10:14:04.880Z,965.34
2022-11-16T10:15:03.600Z,965.31
2022-11-16T10:16:02.930Z,965.45
2022-11-16T10:17:03.203Z,965.42
2022-11-16T10:18:03.242Z,965.50
2022-11-16T10:19:03.330Z,965.47
2022-11-16T10:20:03.294Z,965.39
2022-11-16T10:21:03.573Z,965.36
2022-11-16T10:22:03.908Z,965.30
2022-11-16T10:23:03.107Z,965.50
2022-11-16T10:24:02.982Z,965.30
2022-11-16T10:25:03.190Z,965.21
2022-11-16T10:26:03.401Z,965.27
2022-11-16T10:27:03.407Z,965.24
2022-11-16T10:28:03.536Z,965.35
2022-11-16T10:29:03.755Z,965.35
2022-11-16T10:30:03.085Z,965.29
2022-11-16T10:31:03.115Z,965.17
2022-11-16T10:32:03.211Z,965.23
2022-11-16T10:33:11.250Z,965.45
2022-11-16T10:34:03.496Z,965.31
2022-11-16T10:35:03.631Z,965.25
2022-11-16T10:36:03.042Z,965.31
2022-11-16T10:37:03.040Z,965.31
2022-11-16T10:38:03.073Z,965.22
2022-11-16T10:39:03.172Z,965.25
2022-11-16T10:40:03.322Z,965.36
2022-11-16T10:41:03.224Z,965.16
2022-11-16T10:42:08.117Z,965.13
2022-11-16T10:43:03.343Z,965.19
2022-11-16T10:44:03.661Z,965.30
2022-11-16T10:45:03.932Z,965.18
2022-11-16T10:46:03.076Z,965.21
2022-11-16T10:47:03.034Z,965.24
2022-11-16T10:48:03.064Z,965.01
2022-11-16T10:49:03.140Z,965.15
2022-11-16T10:50:03.223Z,964.98
2022-11-16T10:51:03.248Z,964.95
2022-11-16T10:52:03.435Z,965.04
2022-11-16T10:53:03.534Z,964.98
2022-11-16T10:54:03.732Z,964.95
2022-11-16T10:55:03.875Z,964.98
2022-11-16T10:56:02.944Z,965.00
2022-11-16T10:57:03.113Z,964.92
2022-11-16T10:58:03.173Z,964.97
2022-11-16T10:59:03.221Z,965.06
2022-11-16T11:00:03.299Z,965.08
2022-11-16T11:01:03.530Z,965.00
2022-11-16T11:03:03.743Z,964.97
2022-11-16T11:04:03.762Z,964.85
2022-11-16T11:05:02.933Z,964.93
2022-11-16T11:06:03.175Z,964.93
2022-11-16T11:07:03.386Z,964.85
2022-11-16T11:08:03.605Z,964.87
2022-11-16T11:09:03.628Z,964.65
2022-11-16T11:10:03.624Z,964.74
2022-11-16T11:11:03.578Z,964.79
2022-11-16T11:12:03.742Z,964.84
2022-11-16T11:13:03.884Z,964.73
2022-11-16T11:14:03.818Z,964.76
2022-11-16T11:15:03.908Z,964.79
2022-11-16T11:16:03.948Z,964.76
2022-11-16T11:17:03.910Z,964.79
2022-11-16T11:18:03.057Z,964.76
2022-11-16T11:19:03.149Z,964.78
2022-11-16T11:20:03.360Z,964.67
2022-11-16T11:21:03.270Z,964.70
2022-11-16T11:22:03.374Z,964.61
2022-11-16T11:23:03.369Z,964.64
2022-11-16T11:24:44.975Z,964.72
2022-11-16T11:25:03.195Z,964.72
2022-11-16T11:26:03.541Z,964.78
2022-11-16T11:27:03.563Z,964.88
2022-11-16T11:28:03.571Z,964.85
2022-11-16T11:29:03.647Z,964.75
2022-11-16T11:30:03.800Z,964.75
2022-11-16T11:31:03.783Z,964.66
2022-11-16T11:32:03.773Z,964.80
2022-11-16T11:33:03.819Z,964.69
2022-11-16T11:34:02.999Z,964.57
2022-11-16T11:35:03.219Z,964.66
2022-11-16T11:36:03.159Z,964.74
2022-11-16T11:37:03.152Z,964.74
2022-11-16T11:38:08.540Z,964.77
2022-11-16T11:39:03.710Z,964.77
2022-11-16T11:40:03.689Z,964.71
2022-11-16T11:41:03.697Z,964.80
2022-11-16T11:42:03.852Z,964.60
2022-11-16T11:43:03.944Z,964.65
2022-11-16T11:44:03.064Z,964.68
2022-11-16T11:45:03.168Z,964.62
2022-11-16T11:46:03.388Z,964.62
2022-11-16T11:47:58.366Z,964.68
2022-11-16T11:48:02.582Z,964.68
2022-11-16T11:49:03.822Z,964.79
2022-11-16T11:50:03.934Z,964.76
2022-11-16T11:51:02.898Z,964.74
2022-11-16T11:52:03.137Z,964.56
2022-11-16T11:53:03.331Z,964.87
2022-11-16T11:54:03.579Z,964.71
2022-11-16T11:55:03.665Z,964.65
2022-11-16T11:56:03.761Z,964.84
2022-11-16T11:57:03.764Z,964.76
2022-11-16T11:58:03.764Z,964.65
2022-11-16T11:59:03.777Z,964.87
2022-11-16T12:00:03.194Z,964.79
2022-11-16T12:01:03.214Z,964.79
2022-11-16T12:02:03.402Z,964.70
2022-11-16T12:03:03.723Z,964.76
2022-11-16T12:04:03.848Z,964.67
2022-11-16T12:05:03.872Z,964.79
2022-11-16T12:06:02.931Z,964.62
2022-11-16T12:07:03.253Z,964.76
2022-11-16T12:08:03.328Z,964.73
2022-11-16T12:09:03.558Z,964.67
2022-11-16T12:10:03.712Z,964.70
2022-11-16T12:11:03.796Z,964.73
2022-11-16T12:12:03.879Z,964.67
2022-11-16T12:13:03.287Z,964.75
2022-11-16T12:14:03.329Z,964.67
2022-11-16T12:15:03.481Z,964.64
2022-11-16T12:16:03.561Z,964.58
2022-11-16T12:17:03.690Z,964.69
2022-11-16T12:18:03.619Z,964.69
2022-11-16T12:19:03.067Z,964.58
2022-11-16T12:20:03.066Z,964.58
2022-11-16T12:21:03.280Z,964.66
2022-11-16T12:22:03.145Z,964.66
2022-11-16T12:23:04.918Z,964.63
2022-11-16T12:24:03.524Z,964.66
2022-11-16T12:25:03.775Z,964.55
2022-11-16T12:26:03.038Z,964.66
2022-11-16T12:27:03.386Z,964.63
2022-11-16T12:28:03.698Z,964.63
2022-11-16T12:29:03.908Z,964.66
2022-11-16T12:30:03.213Z,964.52
2022-11-16T12:31:03.148Z,964.58
2022-11-16T12:32:03.280Z,964.69
2022-11-16T12:33:03.467Z,964.74
2022-11-16T12:34:03.578Z,964.63
2022-11-16T12:35:04.004Z,964.66